Tk Rotterdam — A8RG8 — position and weather

sailwx.info

Track history (hours):
 
Tides and Currents Weather Stations Pressure Air Temp Water Temp Dewpoint Dewpoint Depression Visibility Wind Speed Wind Dir Waves Ship Positions

Tk Rotterdam

Last reported at 2015-Sep-03 00:06 UTC. Time now 2015-Sep-04 16:34 UTC.
Position N 44°44' E 037°48'.

Length 130 m; draft 4.9 m.

Type: Cargo ship. MMSI: 636014098.

Date/timePositionNaut miles runAvg speedWind from/ knotsBaromVisibWave heightAir tempDewpointWater temp
2015-Sep-03 00:06N 44°44' E 037°48'0 0.0
2015-Sep-02 23:32N 44°44' E 037°48'0 0.0
2015-Sep-02 22:26N 44°44' E 037°48'0 0.0
2015-Sep-02 21:31N 44°44' E 037°48'0 0.0
2015-Sep-02 20:33N 44°44' E 037°48'0 0.0
2015-Sep-02 19:33N 44°44' E 037°48'0 0.0
2015-Sep-02 18:32N 44°44' E 037°48'0 0.0
2015-Sep-02 17:29N 44°44' E 037°48'0 0.0
2015-Sep-02 03:26N 44°44' E 037°48'0 0.0
2015-Sep-02 02:29N 44°44' E 037°48'0 0.0
2015-Sep-02 01:31N 44°44' E 037°48'0 0.0
2015-Sep-02 00:30N 44°44' E 037°48'0 0.0
2015-Sep-01 23:33N 44°44' E 037°48'0 0.0
2015-Sep-01 22:32N 44°44' E 037°48'0 0.0
2015-Sep-01 21:32N 44°44' E 037°48'0 0.0
2015-Sep-01 20:31N 44°44' E 037°48'0 0.0
2015-Sep-01 19:34N 44°44' E 037°48'0 0.0
2015-Sep-01 18:33N 44°44' E 037°48'0 0.0
2015-Sep-01 17:26N 44°44' E 037°48'0 0.0
2015-Sep-01 16:32N 44°44' E 037°48'0 0.0
2015-Sep-01 15:31N 44°44' E 037°48'1 0.6
2015-Sep-01 14:33N 44°44' E 037°47'0 0.0
2015-Sep-01 13:32N 44°44' E 037°47'1 0.6
2015-Sep-01 12:31N 44°44' E 037°48'0 0.0
2015-Sep-01 11:33N 44°44' E 037°48'0 0.0
2015-Sep-01 10:32N 44°44' E 037°48'0 0.0
2015-Sep-01 09:32N 44°44' E 037°48'0 0.0
2015-Sep-01 08:31N 44°44' E 037°48'0 0.0
2015-Sep-01 07:31N 44°44' E 037°48'0 0.0
2015-Sep-01 06:33N 44°44' E 037°48'0 0.0
2015-Sep-01 05:32N 44°44' E 037°48'0 0.0
2015-Aug-31 03:32N 44°44' E 037°48'0 0.0
2015-Aug-31 02:31N 44°44' E 037°48'0 0.0
2015-Aug-31 01:31N 44°44' E 037°48'0 0.0
2015-Aug-31 00:33N 44°44' E 037°48'0 0.0
2015-Aug-30 23:33N 44°44' E 037°48'0 0.0
2015-Aug-30 22:32N 44°44' E 037°48'0 0.0
2015-Aug-30 21:31N 44°44' E 037°48'0 0.0
2015-Aug-30 20:31N 44°44' E 037°48'0 0.0
2015-Aug-30 19:33N 44°44' E 037°48'0 0.0
2015-Aug-30 14:06N 44°44' E 037°48'0 0.0
2015-Aug-30 13:33N 44°44' E 037°48'0 0.0
2015-Aug-30 12:32N 44°44' E 037°48'0 0.0
2015-Aug-30 11:31N 44°44' E 037°48'0 0.0
2015-Aug-30 10:31N 44°44' E 037°48'0 0.0
2015-Aug-30 09:33N 44°44' E 037°48'0 0.0
2015-Aug-30 08:32N 44°44' E 037°48'0 0.0
2015-Aug-30 07:32N 44°44' E 037°48'0 0.0
2015-Aug-30 06:31N 44°44' E 037°48'0 0.0
2015-Aug-30 05:31N 44°44' E 037°48'0 0.0
2015-Aug-30 04:33N 44°44' E 037°48'0 0.0
2015-Aug-30 03:32N 44°44' E 037°48'0 0.0
2015-Aug-30 02:32N 44°44' E 037°48'0 0.0
2015-Aug-30 01:31N 44°44' E 037°48'0 0.0
2015-Aug-30 00:31N 44°44' E 037°48'0 0.3
2015-Aug-29 23:34N 44°44' E 037°48'7 6.6
2015-Aug-29 22:33N 44°38' E 037°52'4 3.6
2015-Aug-29 21:28N 44°35' E 037°55'0 0.0
2015-Aug-29 20:31N 44°35' E 037°55'0 0.0
2015-Aug-29 19:33N 44°34' E 037°55'0 0.0
2015-Aug-29 18:33N 44°35' E 037°55'0 0.0
2015-Aug-29 17:32N 44°35' E 037°55'0 0.1
2015-Aug-29 16:31N 44°35' E 037°55'0 0.0
2015-Aug-29 15:28N 44°35' E 037°55'0 0.0
2015-Aug-29 14:31N 44°35' E 037°55'0 0.0
2015-Aug-29 13:31N 44°35' E 037°55'3 2.8
2015-Aug-29 12:34N 44°34' E 037°52'9 9.0
2015-Aug-29 11:34N 44°30' E 037°40'9 9.1
2015-Aug-29 10:33N 44°27' E 037°28'2 2.0
2015-Aug-29 09:34N 44°25' E 037°28'2 1.5
2015-Aug-29 08:34N 44°25' E 037°30'2 1.6
2015-Aug-29 07:33N 44°25' E 037°32'2 1.7
2015-Aug-29 06:34N 44°25' E 037°34'1 1.5
2015-Aug-29 05:33N 44°25' E 037°36'2 1.5
2015-Aug-29 04:32N 44°26' E 037°38'1 1.4
2015-Aug-29 03:33N 44°27' E 037°40'21 4.2
2015-Aug-28 22:30N 44°16' E 037°14'9 8.9
2015-Aug-28 21:31N 44°12' E 037°03'9 9.5
2015-Aug-28 20:33N 44°07' E 036°52'19 9.2
2015-Aug-28 18:32N 43°57' E 036°30'9 9.2
2015-Aug-28 17:31N 43°52' E 036°19'9 9.5
2015-Aug-28 16:33N 43°48' E 036°08'20 9.5
2015-Aug-28 14:26N 43°37' E 035°45'8 9.3
2015-Aug-28 13:33N 43°33' E 035°35'9 9.3
2015-Aug-28 12:32N 43°28' E 035°24'9 9.3
2015-Aug-28 11:32N 43°23' E 035°13'10 9.3
2015-Aug-28 10:30N 43°18' E 035°02'9 9.2
2015-Aug-28 09:33N 43°14' E 034°51'9 8.9
2015-Aug-28 08:34N 43°09' E 034°41'9 8.8
2015-Aug-28 07:33N 43°05' E 034°30'9 9.1
2015-Aug-28 06:33N 43°00' E 034°20'  
2015-Aug-25 15:10N 40°58' E 028°55'  
Track history (hours):
 
Tides and Currents Weather Stations Pressure Air Temp Water Temp Dewpoint Dewpoint Depression Visibility Wind Speed Wind Dir Waves Ship Positions

Tk Rotterdam

Last reported at 2015-Sep-03 00:06 UTC. Time now 2015-Sep-04 16:34 UTC.
Position N 44°44' E 037°48'.

Length 130 m; draft 4.9 m.

Type: Cargo ship. MMSI: 636014098.

Date/timePositionNaut miles runAvg speedWind from/ knotsBaromVisibWave heightAir tempDewpointWater temp
2015-Sep-03 00:06N 44°44' E 037°48'0 0.0
2015-Sep-02 23:32N 44°44' E 037°48'0 0.0
2015-Sep-02 22:26N 44°44' E 037°48'0 0.0
2015-Sep-02 21:31N 44°44' E 037°48'0 0.0
2015-Sep-02 20:33N 44°44' E 037°48'0 0.0
2015-Sep-02 19:33N 44°44' E 037°48'0 0.0
2015-Sep-02 18:32N 44°44' E 037°48'0 0.0
2015-Sep-02 17:29N 44°44' E 037°48'0 0.0
2015-Sep-02 03:26N 44°44' E 037°48'0 0.0
2015-Sep-02 02:29N 44°44' E 037°48'0 0.0
2015-Sep-02 01:31N 44°44' E 037°48'0 0.0
2015-Sep-02 00:30N 44°44' E 037°48'0 0.0
2015-Sep-01 23:33N 44°44' E 037°48'0 0.0
2015-Sep-01 22:32N 44°44' E 037°48'0 0.0
2015-Sep-01 21:32N 44°44' E 037°48'0 0.0
2015-Sep-01 20:31N 44°44' E 037°48'0 0.0
2015-Sep-01 19:34N 44°44' E 037°48'0 0.0
2015-Sep-01 18:33N 44°44' E 037°48'0 0.0
2015-Sep-01 17:26N 44°44' E 037°48'0 0.0
2015-Sep-01 16:32N 44°44' E 037°48'0 0.0
2015-Sep-01 15:31N 44°44' E 037°48'1 0.6
2015-Sep-01 14:33N 44°44' E 037°47'0 0.0
2015-Sep-01 13:32N 44°44' E 037°47'1 0.6
2015-Sep-01 12:31N 44°44' E 037°48'0 0.0
2015-Sep-01 11:33N 44°44' E 037°48'0 0.0
2015-Sep-01 10:32N 44°44' E 037°48'0 0.0
2015-Sep-01 09:32N 44°44' E 037°48'0 0.0
2015-Sep-01 08:31N 44°44' E 037°48'0 0.0
2015-Sep-01 07:31N 44°44' E 037°48'0 0.0
2015-Sep-01 06:33N 44°44' E 037°48'0 0.0
2015-Sep-01 05:32N 44°44' E 037°48'0 0.0
2015-Aug-31 03:32N 44°44' E 037°48'0 0.0
2015-Aug-31 02:31N 44°44' E 037°48'0 0.0
2015-Aug-31 01:31N 44°44' E 037°48'0 0.0
2015-Aug-31 00:33N 44°44' E 037°48'0 0.0
2015-Aug-30 23:33N 44°44' E 037°48'0 0.0
2015-Aug-30 22:32N 44°44' E 037°48'0 0.0
2015-Aug-30 21:31N 44°44' E 037°48'0 0.0
2015-Aug-30 20:31N 44°44' E 037°48'0 0.0
2015-Aug-30 19:33N 44°44' E 037°48'0 0.0
2015-Aug-30 14:06N 44°44' E 037°48'0 0.0
2015-Aug-30 13:33N 44°44' E 037°48'0 0.0
2015-Aug-30 12:32N 44°44' E 037°48'0 0.0
2015-Aug-30 11:31N 44°44' E 037°48'0 0.0
2015-Aug-30 10:31N 44°44' E 037°48'0 0.0
2015-Aug-30 09:33N 44°44' E 037°48'0 0.0
2015-Aug-30 08:32N 44°44' E 037°48'0 0.0
2015-Aug-30 07:32N 44°44' E 037°48'0 0.0
2015-Aug-30 06:31N 44°44' E 037°48'0 0.0
2015-Aug-30 05:31N 44°44' E 037°48'0 0.0
2015-Aug-30 04:33N 44°44' E 037°48'0 0.0
2015-Aug-30 03:32N 44°44' E 037°48'0 0.0
2015-Aug-30 02:32N 44°44' E 037°48'0 0.0
2015-Aug-30 01:31N 44°44' E 037°48'0 0.0
2015-Aug-30 00:31N 44°44' E 037°48'0 0.3
2015-Aug-29 23:34N 44°44' E 037°48'7 6.6
2015-Aug-29 22:33N 44°38' E 037°52'4 3.6
2015-Aug-29 21:28N 44°35' E 037°55'0 0.0
2015-Aug-29 20:31N 44°35' E 037°55'0 0.0
2015-Aug-29 19:33N 44°34' E 037°55'0 0.0
2015-Aug-29 18:33N 44°35' E 037°55'0 0.0
2015-Aug-29 17:32N 44°35' E 037°55'0 0.1
2015-Aug-29 16:31N 44°35' E 037°55'0 0.0
2015-Aug-29 15:28N 44°35' E 037°55'0 0.0
2015-Aug-29 14:31N 44°35' E 037°55'0 0.0
2015-Aug-29 13:31N 44°35' E 037°55'3 2.8
2015-Aug-29 12:34N 44°34' E 037°52'9 9.0
2015-Aug-29 11:34N 44°30' E 037°40'9 9.1
2015-Aug-29 10:33N 44°27' E 037°28'2 2.0
2015-Aug-29 09:34N 44°25' E 037°28'2 1.5
2015-Aug-29 08:34N 44°25' E 037°30'2 1.6
2015-Aug-29 07:33N 44°25' E 037°32'2 1.7
2015-Aug-29 06:34N 44°25' E 037°34'1 1.5
2015-Aug-29 05:33N 44°25' E 037°36'2 1.5
2015-Aug-29 04:32N 44°26' E 037°38'1 1.4
2015-Aug-29 03:33N 44°27' E 037°40'21 4.2
2015-Aug-28 22:30N 44°16' E 037°14'9 8.9
2015-Aug-28 21:31N 44°12' E 037°03'9 9.5
2015-Aug-28 20:33N 44°07' E 036°52'19 9.2
2015-Aug-28 18:32N 43°57' E 036°30'9 9.2
2015-Aug-28 17:31N 43°52' E 036°19'9 9.5
2015-Aug-28 16:33N 43°48' E 036°08'20 9.5
2015-Aug-28 14:26N 43°37' E 035°45'8 9.3
2015-Aug-28 13:33N 43°33' E 035°35'9 9.3
2015-Aug-28 12:32N 43°28' E 035°24'9 9.3
2015-Aug-28 11:32N 43°23' E 035°13'10 9.3
2015-Aug-28 10:30N 43°18' E 035°02'9 9.2
2015-Aug-28 09:33N 43°14' E 034°51'9 8.9
2015-Aug-28 08:34N 43°09' E 034°41'9 8.8
2015-Aug-28 07:33N 43°05' E 034°30'9 9.1
2015-Aug-28 06:33N 43°00' E 034°20'  
2015-Aug-25 15:10N 40°58' E 028°55'  

Dump ship's entire track history